Time;durP1;ratioP1;P1;durP2;ratioP2;P2;SDS_P1;SDS_P2;PMS_P1;PMS_P2;Temp;Humidity;BMP_temperature;BMP_pressure;BME280_temperature;BME280_humidity;BME280_pressure;Samples;Min_cycle;Max_cycle;Signal;HPM_P1;HPM_P2
2022/04/23 00:00:13;;;;;;;;;;;;;;;17.44;57.12;100399.41;1044495;28;687;-62
2022/04/23 00:01:06;;;;;;;;;;;;;;;17.44;56.83;100411.03;1044152;28;678;-63
2022/04/23 00:01:57;;;;;;;;;;;;;;;17.44;56.81;100399.41;1044600;28;643;-62
2022/04/23 00:02:49;;;;;;;;;;;;;;;17.44;57.08;100397.56;1045172;28;650;-63
2022/04/23 00:03:39;;;;;;;;;;;;;;;17.43;57.38;100406.63;1044725;28;863;-63
2022/04/23 00:04:30;;;;;;;;;;;;;;;17.44;57.37;100399.41;1044582;28;1965;-63
2022/04/23 00:05:20;;;;;;;;;;;;;;;17.44;56.75;100407.47;1044549;28;705;-63
2022/04/23 00:06:11;;;;;;;;;;;;;;;17.43;57.65;100401.25;1044665;28;701;-63
2022/04/23 00:07:01;;;;;;;;;;;;;;;17.44;57.32;100402.94;1044833;28;736;-62
2022/04/23 00:07:53;;;;;;;;;;;;;;;17.43;56.76;100405.78;1044575;28;694;-61
2022/04/23 00:08:44;;;;;;;;;;;;;;;17.42;57.13;100391.47;1044587;28;644;-61
2022/04/23 00:09:34;;;;;;;;;;;;;;;17.41;56.97;100397.84;1044151;28;721;-63
2022/04/23 00:10:24;;;;;;;;;;;;;;;17.40;57.07;100392.63;1040943;28;694;-62
2022/04/23 00:11:15;;;;;;;;;;;;;;;17.41;56.87;100394.31;1043279;28;642;-62
2022/04/23 00:12:05;;;;;;;;;;;;;;;17.40;57.00;100401.56;1044743;28;650;-62
2022/04/23 00:12:56;;;;;;;;;;;;;;;17.40;56.94;100396.16;1043977;28;634;-63
2022/04/23 00:13:46;;;;;;;;;;;;;;;17.39;57.25;100402.56;1044138;28;698;-63
2022/04/23 00:14:37;;;;;;;;;;;;;;;17.40;56.44;100395.31;1044651;28;658;-64
2022/04/23 00:15:29;;;;;;;;;;;;;;;17.38;56.47;100395.47;1041504;28;709;-63
2022/04/23 00:16:19;;;;;;;;;;;;;;;17.38;57.38;100389.28;1043865;28;674;-64
2022/04/23 00:17:10;;;;;;;;;;;;;;;17.38;57.29;100403.56;1044596;28;702;-63
2022/04/23 00:18:01;;;;;;;;;;;;;;;17.38;56.93;100400.03;1043950;28;646;-63
2022/04/23 00:18:51;;;;;;;;;;;;;;;17.37;56.78;100393.81;1044511;28;637;-63
2022/04/23 00:19:44;;;;;;;;;;;;;;;17.37;56.69;100392.97;1043849;28;880;-63
2022/04/23 00:20:35;;;;;;;;;;;;;;;17.36;57.08;100402.88;1044685;28;770;-62
2022/04/23 00:21:25;;;;;;;;;;;;;;;17.36;57.00;100408.28;1044213;28;706;-63
2022/04/23 00:22:16;;;;;;;;;;;;;;;17.36;56.47;100394.81;1044614;28;681;-63
2022/04/23 00:23:07;;;;;;;;;;;;;;;17.36;56.94;100402.88;1040067;28;682;-63
2022/04/23 00:23:57;;;;;;;;;;;;;;;17.35;56.98;100401.19;1040310;28;722;-61
2022/04/23 00:24:48;;;;;;;;;;;;;;;17.35;56.58;100399.34;1039395;28;1953;-61
2022/04/23 00:25:38;;;;;;;;;;;;;;;17.34;57.38;100392.25;1044082;28;724;-62
2022/04/23 00:26:29;;;;;;;;;;;;;;;17.34;56.78;100399.50;1045074;28;643;-62
2022/04/23 00:27:19;;;;;;;;;;;;;;;17.33;56.62;100395.97;1044555;28;983;-63
2022/04/23 00:28:10;;;;;;;;;;;;;;;17.32;56.65;100396.94;1041286;28;669;-63
2022/04/23 00:29:00;;;;;;;;;;;;;;;17.33;57.43;100395.09;1036552;28;643;-62
2022/04/23 00:29:50;;;;;;;;;;;;;;;17.33;57.31;100397.81;1036628;28;757;-61
2022/04/23 00:30:41;;;;;;;;;;;;;;;17.32;56.78;100401.50;1039782;28;1681;-62
2022/04/23 00:31:32;;;;;;;;;;;;;;;17.32;56.82;100396.94;1039783;28;710;-62
2022/04/23 00:32:22;;;;;;;;;;;;;;;17.32;56.41;100399.66;1040037;28;650;-63
2022/04/23 00:33:12;;;;;;;;;;;;;;;17.31;57.33;100394.41;1040232;28;658;-63
2022/04/23 00:34:03;;;;;;;;;;;;;;;17.30;56.41;100398.09;1040500;28;659;-63
2022/04/23 00:34:53;;;;;;;;;;;;;;;17.31;57.10;100400.66;1040111;28;662;-63
2022/04/23 00:35:44;;;;;;;;;;;;;;;17.31;57.10;100394.41;1039807;28;702;-63
2022/04/23 00:36:34;;;;;;;;;;;;;;;17.29;57.18;100397.25;1040062;28;646;-62
2022/04/23 00:37:25;;;;;;;;;;;;;;;17.31;57.25;100399.81;1040305;28;611;-62
2022/04/23 00:38:16;;;;;;;;;;;;;;;17.30;57.22;100392.72;1040025;28;658;-63
2022/04/23 00:39:06;;;;;;;;;;;;;;;17.29;56.74;100394.56;1040498;28;650;-63
2022/04/23 00:39:57;;;;;;;;;;;;;;;17.28;56.70;100398.25;1040278;28;639;-62
2022/04/23 00:40:48;;;;;;;;;;;;;;;17.29;56.76;100389.19;1035688;28;631;-63
2022/04/23 00:41:48;;;;;;;;;;;;;;;17.29;56.84;100393.72;1036050;28;650;-62
2022/04/23 00:42:38;;;;;;;;;;;;;;;17.28;56.96;100392.03;1040996;28;630;-63
2022/04/23 00:43:28;;;;;;;;;;;;;;;17.28;56.32;100394.72;1040334;28;670;-60
2022/04/23 00:44:19;;;;;;;;;;;;;;;17.28;57.07;100394.72;1040440;28;635;-62
2022/04/23 00:45:09;;;;;;;;;;;;;;;17.27;56.59;100401.09;1040557;28;666;-63
2022/04/23 00:46:00;;;;;;;;;;;;;;;17.27;56.52;100395.72;1039665;28;732;-63
2022/04/23 00:46:50;;;;;;;;;;;;;;;17.28;57.12;100402.78;1040432;28;694;-63
2022/04/23 00:47:40;;;;;;;;;;;;;;;17.28;57.03;100400.09;1040224;28;639;-62
2022/04/23 00:48:31;;;;;;;;;;;;;;;17.27;56.73;100398.41;1039883;28;628;-63
2022/04/23 00:49:22;;;;;;;;;;;;;;;17.26;56.73;100396.72;1039735;28;792;-63
2022/04/23 00:50:12;;;;;;;;;;;;;;;17.26;57.13;100402.94;1040495;28;733;-64
2022/04/23 00:51:03;;;;;;;;;;;;;;;17.25;57.29;100398.56;1040208;28;662;-63
2022/04/23 00:51:53;;;;;;;;;;;;;;;17.26;56.96;100391.31;1041445;28;663;-64
2022/04/23 00:52:44;;;;;;;;;;;;;;;17.25;57.19;100403.09;1040892;28;666;-64
2022/04/23 00:53:34;;;;;;;;;;;;;;;17.24;56.98;100399.56;1041001;28;732;-64
2022/04/23 00:54:25;;;;;;;;;;;;;;;17.25;57.00;100389.63;1041591;28;778;-63
2022/04/23 00:55:15;;;;;;;;;;;;;;;17.24;56.57;100391.47;1040937;28;705;-63
2022/04/23 00:56:05;;;;;;;;;;;;;;;17.23;57.03;100391.63;1040919;28;670;-62
2022/04/23 00:56:56;;;;;;;;;;;;;;;17.24;57.04;100390.63;1040396;28;804;-63
2022/04/23 00:57:47;;;;;;;;;;;;;;;17.23;56.99;100391.63;1040824;28;655;-63
2022/04/23 00:58:38;;;;;;;;;;;;;;;17.24;56.89;100393.31;1041510;28;1317;-63
2022/04/23 00:59:29;;;;;;;;;;;;;;;17.23;56.68;100383.53;1038610;28;721;-63
2022/04/23 01:00:19;;;;;;;;;;;;;;;17.23;56.52;100388.94;1038897;28;629;-63
2022/04/23 01:01:09;;;;;;;;;;;;;;;17.22;57.05;100392.63;1041501;28;721;-63
2022/04/23 01:02:03;;;;;;;;;;;;;;;17.21;56.62;100399.00;1040858;28;673;-63
2022/04/23 01:02:54;;;;;;;;;;;;;;;17.21;56.67;100394.47;1040835;28;674;-63
2022/04/23 01:03:44;;;;;;;;;;;;;;;17.21;56.88;100393.63;1041183;28;693;-63
2022/04/23 01:04:35;;;;;;;;;;;;;;;17.21;56.99;100404.41;1041089;28;1969;-63
2022/04/23 01:05:26;;;;;;;;;;;;;;;17.21;56.91;100399.84;1040534;28;662;-62
2022/04/23 01:06:16;;;;;;;;;;;;;;;17.19;56.56;100391.13;1040909;28;745;-62
2022/04/23 01:07:07;;;;;;;;;;;;;;;17.20;56.45;100397.31;1041445;28;733;-63
2022/04/23 01:08:00;;;;;;;;;;;;;;;17.22;56.80;100392.63;1041001;28;674;-62
2022/04/23 01:08:51;;;;;;;;;;;;;;;17.20;57.21;100398.16;1040803;28;647;-62
2022/04/23 01:09:44;;;;;;;;;;;;;;;17.20;56.38;100391.94;1040134;28;674;-62
2022/04/23 01:10:34;;;;;;;;;;;;;;;17.19;56.81;100393.81;1041126;28;737;-63
2022/04/23 01:11:25;;;;;;;;;;;;;;;17.20;56.83;100391.94;1040975;28;627;-62
2022/04/23 01:12:16;;;;;;;;;;;;;;;17.19;56.77;100387.56;1040893;28;630;-62
2022/04/23 01:13:07;;;;;;;;;;;;;;;17.18;56.59;100397.50;1041058;28;689;-63
2022/04/23 01:13:57;;;;;;;;;;;;;;;17.17;56.68;100387.72;1040612;28;682;-62
2022/04/23 01:14:48;;;;;;;;;;;;;;;17.18;56.56;100393.94;1040808;28;730;-62
2022/04/23 01:15:38;;;;;;;;;;;;;;;17.18;57.15;100393.94;1040935;28;638;-62
2022/04/23 01:16:29;;;;;;;;;;;;;;;17.17;56.54;100386.88;1041177;28;622;-63
2022/04/23 01:17:19;;;;;;;;;;;;;;;17.17;56.47;100392.25;1041054;28;692;-63
2022/04/23 01:18:09;;;;;;;;;;;;;;;17.17;56.47;100392.25;1040210;28;658;-62
2022/04/23 01:19:00;;;;;;;;;;;;;;;17.16;56.94;100390.56;1040699;28;762;-63
2022/04/23 01:19:50;;;;;;;;;;;;;;;17.17;57.03;100392.25;1041416;28;642;-63
2022/04/23 01:20:41;;;;;;;;;;;;;;;17.17;57.00;100394.94;1040836;28;677;-62
2022/04/23 01:21:32;;;;;;;;;;;;;;;17.15;56.49;100384.34;1040013;28;685;-63
2022/04/23 01:22:23;;;;;;;;;;;;;;;17.16;56.88;100385.19;1040007;28;663;-62
2022/04/23 01:23:13;;;;;;;;;;;;;;;17.15;56.97;100396.94;1041138;28;674;-63
2022/04/23 01:24:04;;;;;;;;;;;;;;;17.14;57.02;100390.72;1041311;28;610;-63
2022/04/23 01:24:55;;;;;;;;;;;;;;;17.15;56.91;100392.41;1040869;28;1906;-62
2022/04/23 01:25:46;;;;;;;;;;;;;;;17.16;56.85;100387.88;1040478;28;634;-63
2022/04/23 01:26:36;;;;;;;;;;;;;;;17.13;56.93;100391.72;1041084;28;649;-62
2022/04/23 01:27:28;;;;;;;;;;;;;;;17.14;56.81;100388.03;1041514;28;674;-62
2022/04/23 01:28:19;;;;;;;;;;;;;;;17.14;56.33;100392.56;1040818;28;1307;-62
2022/04/23 01:29:09;;;;;;;;;;;;;;;17.13;56.65;100397.09;1043761;28;620;-62
2022/04/23 01:29:59;;;;;;;;;;;;;;;17.12;56.70;100395.41;1043978;28;670;-63
2022/04/23 01:30:50;;;;;;;;;;;;;;;17.13;56.71;100390.88;1045571;28;1394;-62
2022/04/23 01:31:41;;;;;;;;;;;;;;;17.12;56.53;100395.41;1040462;28;713;-62
2022/04/23 01:32:31;;;;;;;;;;;;;;;17.12;56.99;100395.41;1041185;28;629;-62
2022/04/23 01:33:22;;;;;;;;;;;;;;;17.11;56.56;100388.31;1044755;28;681;-64
2022/04/23 01:34:12;;;;;;;;;;;;;;;17.12;56.56;100394.56;1045464;28;848;-64
2022/04/23 01:35:04;;;;;;;;;;;;;;;17.11;56.42;100387.47;1044158;28;697;-64
2022/04/23 01:35:54;;;;;;;;;;;;;;;17.11;57.04;100399.09;1045419;28;670;-64
2022/04/23 01:36:45;;;;;;;;;;;;;;;17.11;56.42;100395.56;1045507;28;665;-65
2022/04/23 01:37:35;;;;;;;;;;;;;;;17.10;56.96;100393.84;1045480;28;669;-64
2022/04/23 01:38:25;;;;;;;;;;;;;;;17.09;56.80;100390.31;1045407;28;733;-64
2022/04/23 01:39:16;;;;;;;;;;;;;;;17.10;56.44;100391.16;1044855;28;638;-63
2022/04/23 01:40:07;;;;;;;;;;;;;;;17.09;56.87;100395.69;1044842;28;708;-64
2022/04/23 01:40:57;;;;;;;;;;;;;;;17.08;56.60;100391.31;1045522;28;747;-64
2022/04/23 01:41:48;;;;;;;;;;;;;;;17.09;57.16;100392.16;1045450;28;728;-63
2022/04/23 01:42:38;;;;;;;;;;;;;;;17.08;56.88;100393.16;1045580;28;787;-64
2022/04/23 01:43:28;;;;;;;;;;;;;;;17.09;56.38;100387.63;1045499;28;744;-64
2022/04/23 01:44:19;;;;;;;;;;;;;;;17.09;56.71;100392.16;1045308;28;642;-63
2022/04/23 01:45:09;;;;;;;;;;;;;;;17.08;56.54;100387.78;1045367;28;641;-63
2022/04/23 01:46:00;;;;;;;;;;;;;;;17.09;56.63;100389.47;1045368;28;692;-63
2022/04/23 01:46:50;;;;;;;;;;;;;;;17.07;56.84;100386.09;1045430;28;676;-62
2022/04/23 01:47:41;;;;;;;;;;;;;;;17.06;56.85;100384.38;1044846;28;689;-63
2022/04/23 01:48:31;;;;;;;;;;;;;;;17.06;57.08;100392.47;1044904;28;681;-61
2022/04/23 01:49:22;;;;;;;;;;;;;;;17.05;56.94;100388.06;1044745;28;681;-63
2022/04/23 01:50:12;;;;;;;;;;;;;;;17.05;56.63;100394.31;1044797;28;654;-63
2022/04/23 01:51:02;;;;;;;;;;;;;;;17.05;56.75;100393.47;1041929;28;629;-62
2022/04/23 01:51:53;;;;;;;;;;;;;;;17.05;56.42;100394.31;1040658;28;653;-61
2022/04/23 01:52:43;;;;;;;;;;;;;;;17.05;57.03;100393.47;1041232;28;634;-62
2022/04/23 01:53:34;;;;;;;;;;;;;;;17.05;56.79;100388.06;1041290;28;728;-62
2022/04/23 01:54:24;;;;;;;;;;;;;;;17.04;56.77;100391.75;1040623;28;663;-62
2022/04/23 01:55:14;;;;;;;;;;;;;;;17.04;57.20;100387.22;1041242;28;589;-62
2022/04/23 01:56:05;;;;;;;;;;;;;;;17.04;56.92;100392.63;1040697;28;650;-62
2022/04/23 01:56:55;;;;;;;;;;;;;;;17.04;56.87;100391.75;1040764;28;699;-62
2022/04/23 01:57:46;;;;;;;;;;;;;;;17.04;56.70;100386.38;1040687;28;654;-62
2022/04/23 01:58:36;;;;;;;;;;;;;;;17.04;56.84;100389.06;1041226;28;737;-62
2022/04/23 01:59:27;;;;;;;;;;;;;;;17.02;56.38;100390.06;1041489;28;705;-62
2022/04/23 02:00:17;;;;;;;;;;;;;;;17.02;56.59;100387.38;1041767;28;666;-62
2022/04/23 02:01:07;;;;;;;;;;;;;;;17.00;56.73;100391.25;1041238;28;713;-62
2022/04/23 02:01:58;;;;;;;;;;;;;;;17.00;57.14;100392.09;1040589;28;701;-62
2022/04/23 02:02:49;;;;;;;;;;;;;;;17.01;56.99;100395.63;1036231;28;1662;-62
2022/04/23 02:03:39;;;;;;;;;;;;;;;17.00;56.79;100397.47;1036388;28;662;-61
2022/04/23 02:04:30;;;;;;;;;;;;;;;17.00;56.64;100392.09;1038769;28;630;-61
2022/04/23 02:05:21;;;;;;;;;;;;;;;17.00;56.73;100389.41;1040707;28;669;-61
2022/04/23 02:06:12;;;;;;;;;;;;;;;17.00;56.48;100391.25;1041169;28;689;-62
2022/04/23 02:07:02;;;;;;;;;;;;;;;17.02;56.32;100393.78;1041177;28;728;-62
2022/04/23 02:07:53;;;;;;;;;;;;;;;17.02;56.05;100385.72;1041225;28;625;-61
2022/04/23 02:08:43;;;;;;;;;;;;;;;16.99;56.24;100385.00;1036936;28;658;-61
2022/04/23 02:09:34;;;;;;;;;;;;;;;16.98;57.04;100386.00;1036578;28;642;-62
2022/04/23 02:10:24;;;;;;;;;;;;;;;16.98;56.54;100386.00;1041122;28;670;-62
2022/04/23 02:11:15;;;;;;;;;;;;;;;16.99;56.94;100394.94;1040536;28;688;-62
2022/04/23 02:12:05;;;;;;;;;;;;;;;16.99;56.61;100389.56;1041247;28;710;-63
2022/04/23 02:12:55;;;;;;;;;;;;;;;16.98;56.76;100388.72;1036910;28;709;-63
2022/04/23 02:13:47;;;;;;;;;;;;;;;16.98;56.39;100391.41;1036352;28;644;-63
2022/04/23 02:14:37;;;;;;;;;;;;;;;16.98;56.92;100394.09;1041259;28;681;-63
2022/04/23 02:15:28;;;;;;;;;;;;;;;16.97;56.42;100387.00;1041529;28;667;-62
2022/04/23 02:16:18;;;;;;;;;;;;;;;16.97;56.81;100381.63;1040641;28;591;-62
2022/04/23 02:17:09;;;;;;;;;;;;;;;16.97;56.94;100383.47;1040496;28;638;-62
2022/04/23 02:18:00;;;;;;;;;;;;;;;16.96;56.32;100385.31;1040677;28;642;-63
2022/04/23 02:18:50;;;;;;;;;;;;;;;16.96;57.06;100390.69;1041251;28;665;-62
2022/04/23 02:19:41;;;;;;;;;;;;;;;16.95;56.27;100389.00;1040615;28;705;-63
2022/04/23 02:20:32;;;;;;;;;;;;;;;16.96;56.78;100388.00;1041191;28;677;-64
2022/04/23 02:21:22;;;;;;;;;;;;;;;16.95;56.79;100380.94;1040626;28;649;-63
2022/04/23 02:22:13;;;;;;;;;;;;;;;16.96;56.99;100384.47;1041119;28;702;-63
2022/04/23 02:23:03;;;;;;;;;;;;;;;16.96;56.34;100384.47;1040710;28;713;-63
2022/04/23 02:23:54;;;;;;;;;;;;;;;16.95;56.89;100383.63;1040202;28;615;-63
2022/04/23 02:24:45;;;;;;;;;;;;;;;16.95;56.63;100393.53;1040627;28;1972;-63
2022/04/23 02:25:36;;;;;;;;;;;;;;;16.94;56.47;100390.00;1036726;28;927;-63
2022/04/23 02:26:27;;;;;;;;;;;;;;;16.94;56.31;100390.00;1036789;28;685;-64
2022/04/23 02:27:17;;;;;;;;;;;;;;;16.94;56.68;100387.31;1041138;28;610;-63
2022/04/23 02:28:07;;;;;;;;;;;;;;;16.93;56.36;100393.69;1036736;28;697;-64
2022/04/23 02:28:58;;;;;;;;;;;;;;;16.93;56.87;100391.00;1033389;28;649;-63
2022/04/23 02:29:48;;;;;;;;;;;;;;;16.92;56.65;100400.06;1037119;28;638;-64
2022/04/23 02:30:39;;;;;;;;;;;;;;;16.93;57.02;100395.53;1037553;28;1443;-64
2022/04/23 02:31:29;;;;;;;;;;;;;;;16.92;57.01;100402.75;1040593;28;657;-64
2022/04/23 02:32:20;;;;;;;;;;;;;;;16.93;56.43;100395.53;1040150;28;733;-64
2022/04/23 02:33:10;;;;;;;;;;;;;;;16.92;56.63;100392.00;1039971;28;725;-64
2022/04/23 02:34:00;;;;;;;;;;;;;;;16.92;56.51;100392.00;1040014;28;676;-63
2022/04/23 02:34:51;;;;;;;;;;;;;;;16.91;56.79;100386.75;1040017;28;686;-62
2022/04/23 02:35:44;;;;;;;;;;;;;;;16.92;56.38;100389.31;1040723;28;716;-62
2022/04/23 02:36:36;;;;;;;;;;;;;;;16.90;56.76;100385.06;1035662;28;693;-63
2022/04/23 02:37:26;;;;;;;;;;;;;;;16.90;57.07;100393.13;1035567;28;634;-64
2022/04/23 02:38:19;;;;;;;;;;;;;;;16.90;56.26;100387.75;1040029;28;646;-63
2022/04/23 02:39:10;;;;;;;;;;;;;;;16.90;56.98;100388.59;1039936;28;678;-63
2022/04/23 02:40:00;;;;;;;;;;;;;;;16.90;56.16;100388.59;1040084;28;741;-63
2022/04/23 02:40:51;;;;;;;;;;;;;;;16.91;56.87;100392.13;1039939;28;681;-63
2022/04/23 02:41:41;;;;;;;;;;;;;;;16.90;56.46;100391.28;1040628;28;661;-64
2022/04/23 02:42:33;;;;;;;;;;;;;;;16.89;56.55;100392.28;1040399;28;694;-63
2022/04/23 02:43:23;;;;;;;;;;;;;;;16.91;56.37;100397.53;1039549;28;709;-62
2022/04/23 02:44:15;;;;;;;;;;;;;;;16.90;56.65;100391.28;1039882;28;745;-63
2022/04/23 02:45:05;;;;;;;;;;;;;;;16.90;56.50;100385.91;1039609;28;702;-62
2022/04/23 02:45:56;;;;;;;;;;;;;;;16.89;56.35;100392.28;1040691;28;667;-63
2022/04/23 02:46:46;;;;;;;;;;;;;;;16.89;56.08;100389.59;1040548;28;678;-63
2022/04/23 02:47:37;;;;;;;;;;;;;;;16.88;56.67;100385.22;1040548;28;951;-63
2022/04/23 02:48:28;;;;;;;;;;;;;;;16.88;56.61;100387.06;1040767;28;658;-63
2022/04/23 02:49:19;;;;;;;;;;;;;;;16.88;56.29;100395.97;1040098;28;651;-63
2022/04/23 02:50:12;;;;;;;;;;;;;;;16.89;56.58;100386.91;1040886;28;622;-63
2022/04/23 02:51:03;;;;;;;;;;;;;;;16.88;56.82;100389.75;1041272;28;732;-63
2022/04/23 02:51:53;;;;;;;;;;;;;;;16.87;56.35;100385.34;1040831;28;631;-63
2022/04/23 02:52:43;;;;;;;;;;;;;;;16.88;56.71;100393.28;1040892;28;668;-64
2022/04/23 02:53:34;;;;;;;;;;;;;;;16.87;56.65;100391.59;1041469;28;614;-63
2022/04/23 02:54:24;;;;;;;;;;;;;;;16.86;56.72;100389.91;1040863;28;670;-62
2022/04/23 02:55:15;;;;;;;;;;;;;;;16.86;57.02;100389.91;1041349;28;721;-62
2022/04/23 02:56:05;;;;;;;;;;;;;;;16.87;56.72;100385.34;1040966;28;627;-61
2022/04/23 02:56:56;;;;;;;;;;;;;;;16.87;56.07;100382.66;1040176;28;666;-62
2022/04/23 02:57:46;;;;;;;;;;;;;;;16.87;56.44;100386.22;1041425;28;631;-62
2022/04/23 02:58:37;;;;;;;;;;;;;;;16.87;56.19;100386.22;1041378;28;642;-61
2022/04/23 02:59:27;;;;;;;;;;;;;;;16.86;56.89;100387.19;1041126;28;631;-62
2022/04/23 03:00:18;;;;;;;;;;;;;;;16.87;56.77;100378.13;1041270;28;611;-63
2022/04/23 03:01:10;;;;;;;;;;;;;;;16.86;56.74;100387.19;1040738;28;698;-63
2022/04/23 03:02:00;;;;;;;;;;;;;;;16.86;56.34;100383.66;1040849;28;729;-64
2022/04/23 03:02:52;;;;;;;;;;;;;;;16.85;56.57;100382.81;1040861;28;787;-63
2022/04/23 03:03:43;;;;;;;;;;;;;;;16.86;56.30;100383.66;1040863;28;655;-61
2022/04/23 03:04:33;;;;;;;;;;;;;;;16.85;56.52;100382.81;1041967;28;725;-61
2022/04/23 03:05:25;;;;;;;;;;;;;;;16.84;56.65;100375.75;1041229;28;685;-61
2022/04/23 03:06:17;;;;;;;;;;;;;;;16.85;56.66;100385.50;1040084;28;662;-62
2022/04/23 03:07:07;;;;;;;;;;;;;;;16.85;56.56;100385.50;1040389;28;713;-61
2022/04/23 03:08:01;;;;;;;;;;;;;;;16.85;56.83;100384.66;1040724;28;658;-62
2022/04/23 03:08:51;;;;;;;;;;;;;;;16.85;56.63;100381.97;1040831;28;654;-62
2022/04/23 03:09:42;;;;;;;;;;;;;;;16.84;56.52;100383.81;1040728;28;618;-61
2022/04/23 03:10:33;;;;;;;;;;;;;;;16.84;56.21;100386.50;1041388;28;762;-62
2022/04/23 03:11:23;;;;;;;;;;;;;;;16.85;56.65;100388.19;1040750;28;674;-62
2022/04/23 03:12:13;;;;;;;;;;;;;;;16.83;56.72;100390.22;1040817;28;690;-62
2022/04/23 03:13:04;;;;;;;;;;;;;;;16.84;56.24;100389.19;1040627;28;627;-63
2022/04/23 03:13:55;;;;;;;;;;;;;;;16.84;56.74;100385.69;1040808;28;669;-63
2022/04/23 03:14:45;;;;;;;;;;;;;;;16.83;56.32;100390.22;1037481;28;630;-62
2022/04/23 03:15:36;;;;;;;;;;;;;;;16.83;56.17;100387.53;1037416;28;697;-63
2022/04/23 03:16:29;;;;;;;;;;;;;;;16.83;56.89;100382.16;1041199;28;639;-63
2022/04/23 03:17:19;;;;;;;;;;;;;;;16.83;56.23;100390.22;1040777;28;681;-63
2022/04/23 03:18:10;;;;;;;;;;;;;;;16.82;56.83;100388.53;1040589;28;599;-62
2022/04/23 03:19:00;;;;;;;;;;;;;;;16.83;56.99;100390.22;1040879;28;725;-62
2022/04/23 03:19:51;;;;;;;;;;;;;;;16.83;56.58;100390.22;1041165;28;665;-63
2022/04/23 03:20:42;;;;;;;;;;;;;;;16.82;56.39;100385.84;1041251;28;604;-64
2022/04/23 03:21:32;;;;;;;;;;;;;;;16.81;56.12;100386.84;1040700;28;690;-63
2022/04/23 03:22:23;;;;;;;;;;;;;;;16.81;56.57;100386.84;1041276;28;701;-63
2022/04/23 03:23:13;;;;;;;;;;;;;;;16.82;56.51;100385.00;1040748;28;647;-63
2022/04/23 03:24:04;;;;;;;;;;;;;;;16.81;56.17;100384.13;1039918;28;710;-63
2022/04/23 03:24:54;;;;;;;;;;;;;;;16.81;56.27;100391.38;1040688;28;1937;-64
2022/04/23 03:25:45;;;;;;;;;;;;;;;16.80;56.26;100386.97;1041433;28;630;-63
2022/04/23 03:26:35;;;;;;;;;;;;;;;16.80;56.41;100385.13;1041291;28;673;-62
2022/04/23 03:27:25;;;;;;;;;;;;;;;16.80;56.21;100389.66;1040745;28;686;-62
2022/04/23 03:28:17;;;;;;;;;;;;;;;16.79;56.19;100378.06;1040877;28;1256;-62
2022/04/23 03:29:07;;;;;;;;;;;;;;;16.80;56.60;100381.59;1045452;28;705;-62
2022/04/23 03:29:58;;;;;;;;;;;;;;;16.79;56.33;100375.38;1044693;28;697;-63
2022/04/23 03:30:49;;;;;;;;;;;;;;;16.80;56.36;100384.28;1045721;28;1213;-64
2022/04/23 03:31:39;;;;;;;;;;;;;;;16.79;56.28;100383.44;1045297;28;621;-63
2022/04/23 03:32:31;;;;;;;;;;;;;;;16.79;56.59;100387.97;1045891;28;673;-63
2022/04/23 03:33:22;;;;;;;;;;;;;;;16.78;56.56;100380.91;1045993;28;611;-63
2022/04/23 03:34:12;;;;;;;;;;;;;;;16.78;56.45;100379.06;1046027;28;715;-63
2022/04/23 03:35:05;;;;;;;;;;;;;;;16.79;56.45;100382.59;1045966;28;689;-62
2022/04/23 03:35:55;;;;;;;;;;;;;;;16.78;56.47;100384.44;1045997;28;656;-62
2022/04/23 03:36:46;;;;;;;;;;;;;;;16.77;56.38;100377.34;1045386;28;657;-62
2022/04/23 03:37:36;;;;;;;;;;;;;;;16.76;56.20;100378.34;1045858;28;644;-62
2022/04/23 03:38:26;;;;;;;;;;;;;;;16.77;57.00;100380.06;1045401;28;667;-62
2022/04/23 03:39:17;;;;;;;;;;;;;;;16.75;56.10;100384.72;1045368;28;681;-62
2022/04/23 03:40:07;;;;;;;;;;;;;;;16.76;56.34;100382.88;1045960;28;626;-62
2022/04/23 03:40:58;;;;;;;;;;;;;;;16.75;56.91;100381.19;1045798;28;642;-62
2022/04/23 03:41:48;;;;;;;;;;;;;;;16.75;56.51;100387.41;1041018;28;678;-63
2022/04/23 03:42:40;;;;;;;;;;;;;;;16.74;56.08;100374.97;1041469;28;689;-63
2022/04/23 03:43:32;;;;;;;;;;;;;;;16.75;56.03;100387.41;1045972;28;646;-63
2022/04/23 03:44:22;;;;;;;;;;;;;;;16.73;56.67;100378.66;1045888;28;626;-62
2022/04/23 03:45:13;;;;;;;;;;;;;;;16.74;56.11;100384.88;1045903;28;692;-62
2022/04/23 03:46:03;;;;;;;;;;;;;;;16.74;56.85;100383.03;1045892;28;721;-62
2022/04/23 03:46:54;;;;;;;;;;;;;;;16.74;56.46;100388.41;1045395;28;662;-62
2022/04/23 03:47:45;;;;;;;;;;;;;;;16.73;56.11;100384.03;1045822;28;732;-59
2022/04/23 03:48:35;;;;;;;;;;;;;;;16.73;56.66;100389.41;1045809;28;673;-61
2022/04/23 03:49:26;;;;;;;;;;;;;;;16.73;56.55;100388.56;1045817;28;638;-63
2022/04/23 03:50:16;;;;;;;;;;;;;;;16.72;56.69;100387.72;1045933;28;681;-64
2022/04/23 03:51:07;;;;;;;;;;;;;;;16.72;56.83;100386.88;1040991;28;627;-63
2022/04/23 03:51:57;;;;;;;;;;;;;;;16.71;56.48;100393.25;1040072;28;643;-63
2022/04/23 03:52:49;;;;;;;;;;;;;;;16.71;56.76;100385.16;1040186;28;689;-63
2022/04/23 03:53:39;;;;;;;;;;;;;;;16.71;56.56;100391.41;1040120;28;706;-63
2022/04/23 03:54:30;;;;;;;;;;;;;;;16.71;56.34;100390.56;1039947;28;772;-63
2022/04/23 03:55:21;;;;;;;;;;;;;;;16.70;56.54;100383.47;1039903;28;1168;-64
2022/04/23 03:56:12;;;;;;;;;;;;;;;16.70;56.96;100392.41;1044807;28;1034;-65
2022/04/23 03:57:03;;;;;;;;;;;;;;;16.70;56.46;100383.47;1045824;28;662;-64
2022/04/23 03:57:54;;;;;;;;;;;;;;;16.69;56.44;100387.16;1040514;28;682;-64
2022/04/23 03:58:45;;;;;;;;;;;;;;;16.68;56.47;100389.00;1041170;28;701;-63
2022/04/23 03:59:37;;;;;;;;;;;;;;;16.68;56.43;100380.94;1040397;28;642;-63
2022/04/23 04:00:30;;;;;;;;;;;;;;;16.68;56.29;100389.00;1040709;28;827;-63
2022/04/23 04:01:21;;;;;;;;;;;;;;;16.69;56.02;100393.41;1041413;28;1263;-63
2022/04/23 04:02:11;;;;;;;;;;;;;;;16.68;56.34;100380.94;1045360;28;686;-63
2022/04/23 04:03:02;;;;;;;;;;;;;;;16.67;56.35;100384.63;1045279;28;733;-63
2022/04/23 04:03:53;;;;;;;;;;;;;;;16.66;56.13;100389.16;1044794;28;654;-61
2022/04/23 04:04:45;;;;;;;;;;;;;;;16.66;56.74;100389.16;1043974;28;1973;-62
2022/04/23 04:05:35;;;;;;;;;;;;;;;16.65;56.73;100386.66;1041278;28;670;-61
2022/04/23 04:06:25;;;;;;;;;;;;;;;16.66;56.41;100385.63;1041379;28;722;-62
2022/04/23 04:07:17;;;;;;;;;;;;;;;16.66;56.57;100388.31;1045095;28;665;-62
2022/04/23 04:08:11;;;;;;;;;;;;;;;16.65;56.32;100387.50;1045098;28;626;-62
2022/04/23 04:09:02;;;;;;;;;;;;;;;16.65;56.78;100375.88;1045862;28;622;-63
2022/04/23 04:09:52;;;;;;;;;;;;;;;16.65;56.58;100386.66;1039821;28;713;-64
2022/04/23 04:10:43;;;;;;;;;;;;;;;16.64;56.19;100380.41;1040829;28;623;-66
2022/04/23 04:12:43;;;;;;;;;;;;;;;16.64;56.05;100382.25;1041155;28;666;-63
2022/04/23 04:13:33;;;;;;;;;;;;;;;16.63;56.36;100378.72;1039114;28;1254;-63
2022/04/23 04:14:23;;;;;;;;;;;;;;;16.63;56.47;100385.94;1039802;28;612;-64
2022/04/23 04:15:17;;;;;;;;;;;;;;;16.62;56.76;100379.69;1040430;28;658;-63
2022/04/23 04:16:07;;;;;;;;;;;;;;;16.62;56.48;100377.00;1041598;28;682;-63
2022/04/23 04:16:57;;;;;;;;;;;;;;;16.62;57.11;100379.69;1041612;28;678;-64
2022/04/23 04:17:48;;;;;;;;;;;;;;;16.62;56.54;100381.53;1042228;28;697;-64
2022/04/23 04:18:38;;;;;;;;;;;;;;;16.61;56.26;100383.38;1041589;28;622;-64
2022/04/23 04:19:29;;;;;;;;;;;;;;;16.62;56.41;100370.75;1042149;28;792;-64
2022/04/23 04:20:21;;;;;;;;;;;;;;;16.61;56.69;100380.69;1041598;28;795;-63
2022/04/23 04:21:11;;;;;;;;;;;;;;;16.61;56.66;100377.13;1040465;28;670;-64
2022/04/23 04:22:02;;;;;;;;;;;;;;;16.61;56.39;100382.53;1041029;28;717;-64
2022/04/23 04:22:52;;;;;;;;;;;;;;;16.60;56.55;100375.44;1041576;28;681;-64
2022/04/23 04:23:43;;;;;;;;;;;;;;;16.59;56.29;100376.44;1042353;28;775;-64
2022/04/23 04:24:33;;;;;;;;;;;;;;;16.60;56.76;100380.81;1041577;28;638;-63
2022/04/23 04:25:24;;;;;;;;;;;;;;;16.59;56.46;100374.59;1041636;28;650;-63
2022/04/23 04:26:14;;;;;;;;;;;;;;;16.59;56.69;100381.81;1041655;28;623;-64
2022/04/23 04:27:06;;;;;;;;;;;;;;;16.59;56.40;100376.44;1041631;28;645;-64
2022/04/23 04:27:56;;;;;;;;;;;;;;;16.59;56.40;100379.13;1042200;28;689;-63